createdAt,value
2022-09-15T00:00:27.976Z,51.37
2022-09-15T00:02:54.652Z,51.74
2022-09-15T00:05:21.267Z,51.63
2022-09-15T00:07:47.897Z,51.56
2022-09-15T00:10:14.562Z,51.39
2022-09-15T00:12:41.620Z,51.76
2022-09-15T00:15:09.304Z,51.74
2022-09-15T00:17:35.822Z,51.62
2022-09-15T00:20:06.143Z,51.15
2022-09-15T00:22:32.840Z,51.43
2022-09-15T00:24:59.468Z,51.57
2022-09-15T00:27:26.155Z,51.38
2022-09-15T00:29:52.753Z,51.60
2022-09-15T00:32:19.966Z,51.34
2022-09-15T00:34:46.818Z,51.47
2022-09-15T00:37:13.409Z,51.36
2022-09-15T00:39:41.600Z,51.58
2022-09-15T00:42:17.597Z,52.49
2022-09-15T00:45:06.629Z,52.56
2022-09-15T00:47:39.223Z,52.66
2022-09-15T00:50:18.743Z,52.42
2022-09-15T00:53:08.286Z,52.53
2022-09-15T00:55:47.486Z,52.87
2022-09-15T00:58:23.203Z,52.40
2022-09-15T01:00:56.270Z,51.99
2022-09-15T01:03:25.156Z,52.48
2022-09-15T01:05:55.676Z,52.17
2022-09-15T01:08:34.896Z,52.20
2022-09-15T01:11:02.626Z,52.49
2022-09-15T01:13:29.846Z,52.09
2022-09-15T01:16:32.672Z,52.36
2022-09-15T01:19:12.221Z,52.55
2022-09-15T01:21:58.603Z,51.73
2022-09-15T01:24:45.829Z,52.33
2022-09-15T01:27:49.418Z,51.90
2022-09-15T01:30:25.978Z,52.26
2022-09-15T01:33:31.366Z,52.21
2022-09-15T01:36:10.510Z,53.00
2022-09-15T01:38:50.450Z,53.81
2022-09-15T01:41:48.267Z,52.89
2022-09-15T01:44:35.172Z,53.92
2022-09-15T01:47:06.662Z,54.16
2022-09-15T01:50:01.592Z,53.62
2022-09-15T01:52:30.700Z,54.68
2022-09-15T01:55:00.685Z,54.21
2022-09-15T01:57:27.996Z,54.11
2022-09-15T01:59:56.161Z,53.97
2022-09-15T02:02:32.226Z,54.16
2022-09-15T02:05:26.506Z,55.28
2022-09-15T02:08:05.497Z,55.48
2022-09-15T02:11:12.889Z,54.58
2022-09-15T02:14:11.537Z,53.93
2022-09-15T02:16:40.720Z,55.04
2022-09-15T02:19:35.891Z,54.72
2022-09-15T02:22:14.553Z,55.26
2022-09-15T02:24:46.693Z,58.33
2022-09-15T02:27:22.161Z,57.20
2022-09-15T02:29:50.116Z,55.83
2022-09-15T02:32:19.283Z,57.18
2022-09-15T02:34:51.397Z,56.49
2022-09-15T02:37:21.185Z,57.93
2022-09-15T02:39:54.939Z,56.80
2022-09-15T02:42:30.244Z,56.36
2022-09-15T02:44:57.462Z,55.86
2022-09-15T02:47:24.703Z,56.87
2022-09-15T02:49:52.177Z,55.85
2022-09-15T02:52:18.922Z,56.60
2022-09-15T02:54:45.717Z,56.76
2022-09-15T02:57:13.949Z,56.00
2022-09-15T02:59:58.925Z,56.63
2022-09-15T03:02:25.596Z,57.43
2022-09-15T03:04:52.185Z,56.90
2022-09-15T03:07:19.393Z,57.42
2022-09-15T03:09:46.131Z,57.71
2022-09-15T03:12:12.676Z,57.31
2022-09-15T03:14:39.209Z,56.76
2022-09-15T03:17:05.781Z,57.85
2022-09-15T03:19:32.375Z,56.48
2022-09-15T03:21:58.958Z,57.12
2022-09-15T03:24:25.503Z,57.35
2022-09-15T03:26:51.976Z,56.80
2022-09-15T03:29:18.441Z,56.50
2022-09-15T03:31:45.047Z,57.65
2022-09-15T03:34:11.759Z,56.53
2022-09-15T03:36:38.569Z,58.59
2022-09-15T03:39:05.171Z,58.40
2022-09-15T03:41:31.771Z,57.36
2022-09-15T03:43:58.322Z,57.60
2022-09-15T03:46:24.913Z,57.94
2022-09-15T03:48:51.524Z,58.14
2022-09-15T03:51:18.053Z,57.93
2022-09-15T03:53:44.704Z,58.21
2022-09-15T03:56:28.241Z,58.59
2022-09-15T03:58:54.965Z,58.04
2022-09-15T04:01:21.899Z,57.66
2022-09-15T04:03:51.221Z,58.38
2022-09-15T04:06:20.020Z,58.21
2022-09-15T04:08:46.822Z,57.95
2022-09-15T04:11:13.951Z,57.68
2022-09-15T04:13:42.063Z,57.83
2022-09-15T04:16:15.551Z,57.82
2022-09-15T04:18:42.307Z,57.95
2022-09-15T04:21:13.109Z,57.64
2022-09-15T04:23:41.860Z,57.06
2022-09-15T04:26:14.330Z,57.14
2022-09-15T04:28:40.917Z,57.36
2022-09-15T04:31:10.515Z,57.85
2022-09-15T04:33:37.890Z,57.57
2022-09-15T04:36:11.063Z,57.46
2022-09-15T04:38:37.643Z,57.93
2022-09-15T04:41:05.284Z,57.49
2022-09-15T04:43:33.019Z,57.25
2022-09-15T04:45:59.682Z,58.27
2022-09-15T04:48:26.789Z,57.96
2022-09-15T04:50:53.596Z,57.65
2022-09-15T04:53:20.779Z,58.13
2022-09-15T04:55:47.348Z,57.60
2022-09-15T04:58:14.576Z,58.54
2022-09-15T05:00:45.800Z,58.50
2022-09-15T05:03:14.182Z,57.63
2022-09-15T05:05:41.400Z,57.80
2022-09-15T05:08:08.337Z,57.37
2022-09-15T05:10:35.440Z,56.89
2022-09-15T05:13:02.347Z,58.14
2022-09-15T05:15:29.056Z,57.67
2022-09-15T05:17:55.627Z,57.49
2022-09-15T05:20:22.824Z,57.44
2022-09-15T05:22:49.368Z,56.92
2022-09-15T05:25:15.986Z,58.37
2022-09-15T05:27:42.741Z,58.35
2022-09-15T05:30:35.877Z,57.42
2022-09-15T05:32:56.779Z,60.12
2022-09-15T05:35:24.031Z,59.75
2022-09-15T05:37:50.658Z,58.04
2022-09-15T05:40:17.295Z,58.35
2022-09-15T05:42:43.946Z,58.54
2022-09-15T05:45:11.074Z,59.51
2022-09-15T05:47:37.798Z,59.90
2022-09-15T05:50:04.685Z,60.34
2022-09-15T05:52:31.239Z,60.83
2022-09-15T05:54:59.361Z,60.91
2022-09-15T05:57:26.131Z,62.23
2022-09-15T05:59:52.667Z,61.76
2022-09-15T06:02:19.264Z,61.40
2022-09-15T06:04:45.913Z,62.13
2022-09-15T06:07:13.421Z,62.14
2022-09-15T06:09:40.048Z,60.29
2022-09-15T06:12:06.756Z,60.01
2022-09-15T06:14:33.334Z,60.59
2022-09-15T06:17:00.265Z,60.39
2022-09-15T06:19:26.765Z,61.17
2022-09-15T06:21:54.423Z,61.06
2022-09-15T06:24:22.109Z,62.70
2022-09-15T06:26:48.652Z,63.12
2022-09-15T06:29:15.210Z,63.30
2022-09-15T06:31:41.945Z,64.39
2022-09-15T06:34:11.278Z,60.94
2022-09-15T06:36:38.942Z,61.26
2022-09-15T06:39:05.623Z,60.04
2022-09-15T06:41:47.386Z,62.68
2022-09-15T06:44:21.954Z,62.25
2022-09-15T06:46:49.414Z,61.20
2022-09-15T06:49:16.454Z,61.08
2022-09-15T06:51:43.083Z,60.77
2022-09-15T06:54:10.935Z,58.76
2022-09-15T06:56:38.442Z,59.11
2022-09-15T06:59:05.550Z,58.76
2022-09-15T07:01:32.686Z,58.52
2022-09-15T07:04:01.602Z,59.14
2022-09-15T07:06:30.262Z,59.40
2022-09-15T07:08:57.456Z,59.17
2022-09-15T07:11:24.759Z,57.42
2022-09-15T07:13:52.134Z,57.17
2022-09-15T07:16:20.192Z,57.23
2022-09-15T07:18:47.471Z,57.17
2022-09-15T07:21:17.100Z,56.94
2022-09-15T07:23:44.476Z,57.66
2022-09-15T07:26:23.868Z,56.73
2022-09-15T07:29:05.690Z,56.56
2022-09-15T07:31:34.789Z,56.75
2022-09-15T07:34:02.312Z,56.78
2022-09-15T07:36:29.879Z,57.13
2022-09-15T07:38:56.497Z,57.07
2022-09-15T07:41:28.349Z,56.55
2022-09-15T07:43:57.870Z,57.14
2022-09-15T07:46:25.589Z,57.36
2022-09-15T07:48:56.418Z,57.25
2022-09-15T07:51:23.797Z,56.81
2022-09-15T07:53:51.206Z,56.82
2022-09-15T07:56:18.649Z,56.42
2022-09-15T07:58:46.557Z,55.99
2022-09-15T08:01:16.737Z,56.53
2022-09-15T08:03:49.146Z,56.21
2022-09-15T08:06:18.103Z,56.03
2022-09-15T08:08:45.203Z,55.54
2022-09-15T08:11:18.420Z,55.33
2022-09-15T08:13:46.934Z,55.31
2022-09-15T08:16:22.354Z,55.34
2022-09-15T08:18:50.028Z,54.93
2022-09-15T08:21:20.345Z,54.80
2022-09-15T08:23:51.840Z,54.34
2022-09-15T08:26:18.893Z,54.49
2022-09-15T08:28:46.328Z,53.46
2022-09-15T08:31:14.258Z,52.74
2022-09-15T08:33:45.516Z,53.48
2022-09-15T08:36:13.803Z,52.24
2022-09-15T08:38:41.972Z,53.53
2022-09-15T08:41:18.722Z,52.91
2022-09-15T08:43:57.703Z,52.73
2022-09-15T08:46:31.915Z,53.46
2022-09-15T08:49:10.748Z,53.07
2022-09-15T08:51:46.280Z,53.98
2022-09-15T08:54:21.791Z,53.78
2022-09-15T08:56:48.994Z,53.47
2022-09-15T08:59:17.500Z,51.96
2022-09-15T09:02:18.281Z,52.31
2022-09-15T09:05:03.443Z,52.99
2022-09-15T09:08:09.767Z,52.49
2022-09-15T09:10:53.011Z,53.01
2022-09-15T09:13:35.206Z,52.98
2022-09-15T09:16:26.732Z,49.99
2022-09-15T09:19:18.703Z,50.66
2022-09-15T09:21:53.683Z,49.47
2022-09-15T09:24:28.790Z,50.72
2022-09-15T09:26:55.822Z,49.96
2022-09-15T09:29:34.707Z,48.66
2022-09-15T09:32:03.299Z,48.85
2022-09-15T09:35:03.004Z,47.34
2022-09-15T09:37:29.993Z,47.65
2022-09-15T09:39:56.836Z,48.12
2022-09-15T09:42:30.559Z,46.88
2022-09-15T09:44:57.376Z,46.26
2022-09-15T09:47:29.797Z,47.09
2022-09-15T09:49:56.422Z,46.93
2022-09-15T09:52:39.280Z,47.56
2022-09-15T09:55:27.204Z,48.16
2022-09-15T09:58:10.954Z,47.94
2022-09-15T10:00:40.355Z,47.48
2022-09-15T10:03:18.936Z,47.99
2022-09-15T10:06:00.094Z,47.30
2022-09-15T10:08:26.831Z,46.25
2022-09-15T10:10:55.913Z,47.18
2022-09-15T10:13:23.035Z,47.30
2022-09-15T10:15:59.442Z,46.86
2022-09-15T10:18:34.300Z,46.86
2022-09-15T10:21:08.347Z,47.50
2022-09-15T10:23:35.556Z,46.53
2022-09-15T10:26:32.193Z,44.70
2022-09-15T10:29:17.136Z,46.23
2022-09-15T10:31:45.150Z,46.54
2022-09-15T10:34:28.446Z,46.26
2022-09-15T10:37:06.275Z,47.00
2022-09-15T10:39:53.371Z,45.99
2022-09-15T10:42:33.468Z,45.96
2022-09-15T10:45:39.626Z,45.89
2022-09-15T10:48:39.982Z,45.65
2022-09-15T10:51:18.720Z,46.35
2022-09-15T10:54:00.261Z,46.70
2022-09-15T10:56:34.540Z,46.70
2022-09-15T10:59:16.099Z,46.24
2022-09-15T11:02:01.742Z,47.04
2022-09-15T11:04:57.962Z,47.08
2022-09-15T11:07:37.912Z,47.03
2022-09-15T11:10:34.035Z,46.63
2022-09-15T11:13:09.347Z,47.11
2022-09-15T11:16:24.180Z,46.80
2022-09-15T11:19:10.049Z,47.86
2022-09-15T11:21:44.813Z,47.97
2022-09-15T11:24:22.507Z,48.47
2022-09-15T11:27:01.504Z,49.05
2022-09-15T11:29:43.592Z,48.60
2022-09-15T11:32:14.909Z,48.50
2022-09-15T11:34:49.811Z,48.48
2022-09-15T11:37:25.609Z,47.94
2022-09-15T11:40:06.642Z,48.28
2022-09-15T11:42:44.978Z,49.20
2022-09-15T11:45:24.523Z,49.58
2022-09-15T11:47:59.438Z,49.71
2022-09-15T11:50:34.301Z,49.52
2022-09-15T11:53:09.700Z,49.64
2022-09-15T11:55:45.321Z,50.44
2022-09-15T11:58:31.111Z,50.51
2022-09-15T12:01:01.911Z,50.54
2022-09-15T12:03:42.429Z,50.95
2022-09-15T12:06:28.101Z,50.60
2022-09-15T12:09:06.389Z,50.78
2022-09-15T12:11:42.395Z,50.87
2022-09-15T12:14:35.048Z,51.07
2022-09-15T12:17:01.979Z,51.58
2022-09-15T12:19:55.778Z,51.67
2022-09-15T12:22:41.423Z,52.39
2022-09-15T12:25:14.112Z,52.39
2022-09-15T12:27:40.744Z,53.01
2022-09-15T12:30:41.219Z,54.41
2022-09-15T12:33:54.044Z,59.33
2022-09-15T12:36:34.359Z,67.43
2022-09-15T12:39:02.893Z,67.04
2022-09-15T12:41:30.636Z,69.70
2022-09-15T12:44:02.458Z,69.41
2022-09-15T12:46:29.136Z,71.92
2022-09-15T12:49:03.154Z,70.84
2022-09-15T12:51:31.014Z,70.39
2022-09-15T12:54:07.521Z,71.31
2022-09-15T12:56:35.561Z,70.95
2022-09-15T12:59:11.256Z,69.86
2022-09-15T13:01:51.390Z,70.44
2022-09-15T13:04:43.136Z,71.98
2022-09-15T13:07:16.907Z,73.47
2022-09-15T13:09:58.435Z,74.82
2022-09-15T13:12:33.138Z,74.89
2022-09-15T13:15:03.988Z,76.60
2022-09-15T13:17:33.215Z,79.86
2022-09-15T13:20:09.225Z,77.72
2022-09-15T13:22:43.965Z,71.46
2022-09-15T13:25:14.650Z,66.63
2022-09-15T13:27:43.099Z,67.97
2022-09-15T13:30:18.889Z,69.36
2022-09-15T13:33:09.968Z,72.67
2022-09-15T13:35:43.039Z,72.18
2022-09-15T13:38:39.502Z,71.55
2022-09-15T13:41:24.780Z,68.27
2022-09-15T13:44:00.451Z,69.50
2022-09-15T13:46:48.268Z,68.25
2022-09-15T13:49:33.198Z,67.52
2022-09-15T13:52:22.528Z,68.84
2022-09-15T13:55:24.320Z,68.86
2022-09-15T14:01:07.544Z,64.61
2022-09-15T14:03:41.713Z,65.07
2022-09-15T14:06:30.402Z,64.68
2022-09-15T14:09:04.307Z,64.17
2022-09-15T14:11:33.613Z,65.04
2022-09-15T14:14:03.356Z,63.91
2022-09-15T14:16:36.792Z,64.52
2022-09-15T14:19:27.832Z,63.54
2022-09-15T14:21:58.298Z,66.04
2022-09-15T14:24:30.979Z,65.35
2022-09-15T14:27:01.007Z,65.95
2022-09-15T14:29:27.946Z,66.40
2022-09-15T14:32:01.991Z,65.40
2022-09-15T14:34:33.373Z,64.49
2022-09-15T14:37:12.016Z,64.99
2022-09-15T14:39:40.431Z,65.16
2022-09-15T14:42:23.015Z,66.69
2022-09-15T14:47:43.398Z,63.87
2022-09-15T14:50:21.487Z,63.20
2022-09-15T14:52:50.601Z,63.73
2022-09-15T14:55:23.793Z,63.79
2022-09-15T14:58:01.329Z,64.56
2022-09-15T15:00:33.054Z,64.22
2022-09-15T15:03:14.744Z,63.54
2022-09-15T15:06:02.798Z,63.78
2022-09-15T15:08:32.971Z,64.86
2022-09-15T15:11:01.610Z,64.73
2022-09-15T15:13:30.074Z,65.12
2022-09-15T15:15:56.878Z,65.08
2022-09-15T15:18:35.561Z,63.95
2022-09-15T15:21:02.214Z,63.84
2022-09-15T15:23:28.851Z,64.30
2022-09-15T15:26:26.739Z,63.71
2022-09-15T15:28:53.276Z,63.02
2022-09-15T15:31:23.690Z,63.65
2022-09-15T15:34:05.710Z,64.53
2022-09-15T15:36:35.202Z,64.00
2022-09-15T15:39:24.796Z,62.55
2022-09-15T15:42:01.332Z,62.65
2022-09-15T15:44:31.559Z,62.36
2022-09-15T15:47:13.507Z,62.06
2022-09-15T15:50:02.313Z,62.31
2022-09-15T15:52:27.711Z,60.97
2022-09-15T15:54:54.206Z,61.89
2022-09-15T15:57:27.640Z,63.22
2022-09-15T15:59:56.988Z,62.89
2022-09-15T16:02:25.522Z,62.25
2022-09-15T16:04:52.335Z,62.63
2022-09-15T16:07:23.354Z,61.97
2022-09-15T16:09:52.099Z,61.63
2022-09-15T16:12:19.225Z,61.27
2022-09-15T16:14:47.596Z,61.49
2022-09-15T16:17:15.041Z,60.84
2022-09-15T16:19:41.841Z,60.67
2022-09-15T16:22:16.321Z,60.71
2022-09-15T16:24:43.053Z,60.23
2022-09-15T16:27:16.339Z,59.98
2022-09-15T16:29:43.951Z,59.47
2022-09-15T16:32:22.111Z,58.81
2022-09-15T16:34:53.944Z,57.88
2022-09-15T16:37:23.140Z,57.25
2022-09-15T16:39:52.120Z,58.09
2022-09-15T16:42:19.060Z,59.24
2022-09-15T16:44:46.398Z,58.91
2022-09-15T16:47:13.196Z,59.92
2022-09-15T16:49:39.784Z,59.60
2022-09-15T16:52:07.354Z,59.96
2022-09-15T16:54:33.964Z,59.73
2022-09-15T16:57:00.672Z,60.35
2022-09-15T16:59:27.245Z,60.90
2022-09-15T17:01:53.980Z,60.71
2022-09-15T17:04:20.999Z,61.08
2022-09-15T17:06:47.653Z,60.66
2022-09-15T17:09:14.386Z,61.14
2022-09-15T17:11:41.238Z,61.85
2022-09-15T17:14:14.253Z,61.31
2022-09-15T17:16:41.993Z,61.43
2022-09-15T17:19:08.669Z,62.07
2022-09-15T17:21:35.342Z,62.62
2022-09-15T17:24:03.497Z,62.34
2022-09-15T17:26:31.566Z,61.67
2022-09-15T17:28:58.993Z,62.81
2022-09-15T17:31:26.080Z,62.27
2022-09-15T17:33:52.796Z,63.00
2022-09-15T17:36:19.904Z,63.50
2022-09-15T17:38:49.339Z,61.54
2022-09-15T17:41:18.736Z,61.60
2022-09-15T17:43:45.936Z,61.47
2022-09-15T17:46:13.033Z,62.41
2022-09-15T17:48:40.142Z,63.46
2022-09-15T17:51:08.047Z,63.82
2022-09-15T17:53:35.007Z,64.61
2022-09-15T17:56:01.772Z,63.87
2022-09-15T17:58:31.609Z,63.42
2022-09-15T18:00:59.163Z,65.22
2022-09-15T18:03:30.027Z,64.77
2022-09-15T18:05:58.549Z,62.95
2022-09-15T18:08:26.467Z,62.63
2022-09-15T18:10:53.604Z,61.74
2022-09-15T18:13:23.522Z,62.25
2022-09-15T18:15:50.702Z,61.21
2022-09-15T18:18:20.077Z,61.21
2022-09-15T18:20:47.720Z,60.97
2022-09-15T18:23:16.884Z,60.45
2022-09-15T18:25:44.651Z,59.71
2022-09-15T18:28:12.439Z,58.57
2022-09-15T18:30:42.278Z,58.31
2022-09-15T18:33:20.845Z,58.08
2022-09-15T18:35:50.374Z,58.74
2022-09-15T18:38:18.089Z,58.13
2022-09-15T18:40:56.004Z,55.24
2022-09-15T18:43:27.400Z,56.07
2022-09-15T18:46:02.123Z,56.92
2022-09-15T18:48:29.492Z,56.55
2022-09-15T18:50:57.677Z,56.81
2022-09-15T18:53:24.642Z,57.85
2022-09-15T18:55:51.555Z,57.48
2022-09-15T18:58:19.675Z,58.76
2022-09-15T19:00:46.803Z,57.09
2022-09-15T19:03:14.328Z,56.48
2022-09-15T19:05:41.743Z,56.96
2022-09-15T19:08:09.414Z,57.83
2022-09-15T19:10:36.085Z,57.17
2022-09-15T19:13:02.812Z,58.22
2022-09-15T19:15:31.364Z,57.96
2022-09-15T19:17:58.044Z,57.12
2022-09-15T19:20:25.419Z,58.38
2022-09-15T19:22:52.246Z,57.81
2022-09-15T19:25:20.436Z,59.07
2022-09-15T19:27:48.033Z,57.60
2022-09-15T19:30:15.236Z,57.08
2022-09-15T19:32:46.325Z,57.64
2022-09-15T19:35:13.902Z,56.87
2022-09-15T19:37:41.778Z,56.23
2022-09-15T19:40:12.265Z,57.21
2022-09-15T19:42:41.871Z,57.07
2022-09-15T19:45:10.985Z,55.60
2022-09-15T19:47:38.996Z,54.88
2022-09-15T19:50:08.098Z,54.83
2022-09-15T19:52:34.739Z,53.36
2022-09-15T19:55:01.685Z,49.37
2022-09-15T19:57:28.731Z,51.34
2022-09-15T19:59:55.321Z,51.98
2022-09-15T20:02:23.252Z,50.81
2022-09-15T20:07:34.684Z,49.24
2022-09-15T20:10:02.189Z,51.45
2022-09-15T20:12:28.838Z,53.82
2022-09-15T20:14:55.655Z,51.98
2022-09-15T20:17:22.558Z,51.92
2022-09-15T20:19:49.290Z,50.73
2022-09-15T20:22:16.530Z,53.54
2022-09-15T20:24:46.178Z,53.67
2022-09-15T20:27:14.131Z,54.15
2022-09-15T20:29:42.113Z,54.35
2022-09-15T20:32:08.797Z,50.65
2022-09-15T20:34:38.061Z,52.30
2022-09-15T20:37:05.687Z,53.07
2022-09-15T20:39:33.347Z,53.82
2022-09-15T20:41:59.918Z,54.38
2022-09-15T20:44:26.619Z,56.25
2022-09-15T20:46:53.676Z,53.17
2022-09-15T20:49:20.492Z,50.98
2022-09-15T20:51:47.143Z,54.04
2022-09-15T20:54:15.049Z,51.81
2022-09-15T20:56:42.972Z,54.66
2022-09-15T20:59:15.761Z,56.61
2022-09-15T21:01:44.036Z,54.91
2022-09-15T21:04:12.111Z,52.62
2022-09-15T21:06:39.281Z,52.98
2022-09-15T21:09:06.367Z,54.00
2022-09-15T21:11:33.885Z,54.29
2022-09-15T21:14:01.548Z,54.58
2022-09-15T21:16:29.105Z,54.65
2022-09-15T21:18:57.575Z,54.44
2022-09-15T21:21:26.512Z,56.56
2022-09-15T21:24:03.501Z,54.81
2022-09-15T21:26:32.646Z,54.20
2022-09-15T21:28:59.298Z,55.08
2022-09-15T21:31:28.552Z,53.14
2022-09-15T21:33:56.330Z,54.96
2022-09-15T21:36:25.962Z,53.51
2022-09-15T21:38:56.192Z,53.91
2022-09-15T21:41:25.531Z,56.00
2022-09-15T21:43:54.924Z,54.40
2022-09-15T21:46:24.192Z,54.98
2022-09-15T21:48:51.187Z,54.81
2022-09-15T21:51:24.294Z,55.19
2022-09-15T21:53:53.043Z,54.21
2022-09-15T21:56:20.672Z,56.80
2022-09-15T21:58:47.310Z,49.86
2022-09-15T22:01:19.267Z,52.38
2022-09-15T22:04:12.070Z,52.82
2022-09-15T22:06:40.485Z,52.60
2022-09-15T22:09:10.486Z,55.51
2022-09-15T22:11:38.402Z,54.68
2022-09-15T22:14:10.423Z,56.06
2022-09-15T22:16:38.018Z,53.86
2022-09-15T22:19:07.663Z,55.97
2022-09-15T22:21:37.184Z,53.76
2022-09-15T22:24:05.806Z,55.69
2022-09-15T22:26:34.359Z,55.58
2022-09-15T22:29:01.750Z,54.61
2022-09-15T22:31:29.320Z,56.15
2022-09-15T22:33:56.659Z,56.53
2022-09-15T22:36:29.719Z,55.64
2022-09-15T22:39:04.391Z,54.44
2022-09-15T22:41:35.242Z,53.73
2022-09-15T22:44:04.434Z,55.18
2022-09-15T22:46:31.395Z,54.09
2022-09-15T22:48:58.678Z,54.18
2022-09-15T22:51:25.354Z,53.16
2022-09-15T22:53:57.184Z,55.54
2022-09-15T22:56:25.785Z,53.32
2022-09-15T22:58:52.460Z,52.65
2022-09-15T23:01:21.566Z,55.86
2022-09-15T23:03:53.528Z,54.23
2022-09-15T23:06:21.331Z,54.50
2022-09-15T23:08:52.858Z,54.11
2022-09-15T23:11:20.401Z,52.99
2022-09-15T23:13:48.791Z,55.18
2022-09-15T23:16:15.853Z,54.04
2022-09-15T23:18:43.480Z,55.41
2022-09-15T23:21:12.198Z,55.05
2022-09-15T23:23:41.153Z,53.76
2022-09-15T23:26:10.474Z,55.35
2022-09-15T23:28:41.516Z,55.64
2022-09-15T23:31:10.303Z,55.60
2022-09-15T23:33:37.082Z,53.29
2022-09-15T23:36:05.545Z,54.30
2022-09-15T23:38:38.923Z,53.28
2022-09-15T23:41:06.803Z,50.95
2022-09-15T23:43:34.009Z,53.01
2022-09-15T23:46:01.064Z,51.66
2022-09-15T23:48:27.722Z,51.60
2022-09-15T23:50:54.606Z,53.31
2022-09-15T23:53:21.723Z,53.44
2022-09-15T23:55:48.572Z,50.67
2022-09-15T23:58:16.070Z,53.31
